createdAt,value
2019-05-30T00:00:09.143Z,7.80
2019-05-30T00:02:23.562Z,7.70
2019-05-30T00:04:54.096Z,7.70
2019-05-30T00:07:23.584Z,7.70
2019-05-30T00:09:54.226Z,7.60
2019-05-30T00:12:23.747Z,7.60
2019-05-30T00:14:54.427Z,7.50
2019-05-30T00:17:23.985Z,7.50
2019-05-30T00:19:54.826Z,7.50
2019-05-30T00:22:24.584Z,7.50
2019-05-30T00:24:54.002Z,7.50
2019-05-30T00:27:23.473Z,7.40
2019-05-30T00:29:52.903Z,7.40
2019-05-30T00:32:22.247Z,7.40
2019-05-30T00:34:52.647Z,7.40
2019-05-30T00:37:22.138Z,7.40
2019-05-30T00:40:10.586Z,7.40
2019-05-30T00:42:39.941Z,7.40
2019-05-30T00:45:20.428Z,7.30
2019-05-30T00:47:41.533Z,7.30
2019-05-30T00:50:10.991Z,7.30
2019-05-30T00:52:40.438Z,7.20
2019-05-30T00:55:09.759Z,7.20
2019-05-30T00:57:39.127Z,7.10
2019-05-30T01:00:08.958Z,7.10
2019-05-30T01:02:38.462Z,7.10
2019-05-30T01:05:08.362Z,7.00
2019-05-30T01:07:38.065Z,7.00
2019-05-30T01:10:09.020Z,7.00
2019-05-30T01:12:38.363Z,7.00
2019-05-30T01:15:08.452Z,6.90
2019-05-30T01:17:37.767Z,6.90
2019-05-30T01:20:07.932Z,6.90
2019-05-30T01:22:37.443Z,6.80
2019-05-30T01:27:41.761Z,6.80
2019-05-30T01:30:11.820Z,6.70
2019-05-30T01:32:41.244Z,6.70
2019-05-30T01:35:11.173Z,6.60
2019-05-30T01:37:40.667Z,6.60
2019-05-30T01:40:11.919Z,6.60
2019-05-30T01:42:41.309Z,6.60
2019-05-30T01:45:12.928Z,6.60
2019-05-30T01:47:42.258Z,6.60
2019-05-30T01:50:13.287Z,6.60
2019-05-30T01:52:42.609Z,6.60
2019-05-30T01:55:12.537Z,6.60
2019-05-30T01:57:41.917Z,6.50
2019-05-30T02:00:20.591Z,6.60
2019-05-30T02:02:43.530Z,6.50
2019-05-30T02:05:13.456Z,6.50
2019-05-30T02:07:42.898Z,6.50
2019-05-30T02:10:12.729Z,6.50
2019-05-30T02:12:42.280Z,6.50
2019-05-30T02:15:11.956Z,6.50
2019-05-30T02:17:41.463Z,6.50
2019-05-30T02:20:11.044Z,6.50
2019-05-30T02:22:40.524Z,6.50
2019-05-30T02:25:11.509Z,6.40
2019-05-30T02:27:40.923Z,6.40
2019-05-30T02:30:14.359Z,6.50
2019-05-30T02:32:42.016Z,6.40
2019-05-30T02:35:12.893Z,6.40
2019-05-30T02:37:42.574Z,6.40
2019-05-30T02:40:15.164Z,6.40
2019-05-30T02:42:43.752Z,6.40
2019-05-30T02:45:13.625Z,6.40
2019-05-30T02:47:43.137Z,6.30
2019-05-30T02:50:14.152Z,6.30
2019-05-30T02:52:43.789Z,6.30
2019-05-30T02:55:13.856Z,6.30
2019-05-30T02:57:43.558Z,6.20
2019-05-30T03:00:17.084Z,6.20
2019-05-30T03:02:44.296Z,6.30
2019-05-30T03:05:14.935Z,6.30
2019-05-30T03:07:44.820Z,6.30
2019-05-30T03:10:15.508Z,6.30
2019-05-30T03:12:45.020Z,6.40
2019-05-30T03:15:15.596Z,6.40
2019-05-30T03:17:46.580Z,6.40
2019-05-30T03:20:22.701Z,6.40
2019-05-30T03:22:47.710Z,6.30
2019-05-30T03:25:17.392Z,6.40
2019-05-30T03:27:47.030Z,6.30
2019-05-30T03:30:26.593Z,6.40
2019-05-30T03:33:05.062Z,6.40
2019-05-30T03:35:28.303Z,6.40
2019-05-30T03:37:50.849Z,6.50
2019-05-30T03:40:22.370Z,6.40
2019-05-30T03:42:51.674Z,6.60
2019-05-30T03:45:21.122Z,6.50
2019-05-30T03:47:53.800Z,6.50
2019-05-30T03:50:26.092Z,6.60
2019-05-30T03:52:56.071Z,6.70
2019-05-30T03:55:27.124Z,6.80
2019-05-30T03:58:05.619Z,6.90
2019-05-30T04:00:44.241Z,6.90
2019-05-30T04:03:43.138Z,6.90
2019-05-30T04:06:19.552Z,6.90
2019-05-30T04:08:51.946Z,6.90
2019-05-30T04:11:24.889Z,7.00
2019-05-30T04:14:15.701Z,7.10
2019-05-30T04:16:45.338Z,7.10
2019-05-30T04:19:15.616Z,7.10
2019-05-30T04:21:45.904Z,7.10
2019-05-30T04:24:16.383Z,7.20
2019-05-30T04:26:46.132Z,7.20
2019-05-30T04:29:16.860Z,7.20
2019-05-30T04:31:46.667Z,7.30
2019-05-30T04:34:17.213Z,7.40
2019-05-30T04:36:47.227Z,7.40
2019-05-30T04:39:17.187Z,7.40
2019-05-30T04:41:46.729Z,7.60
2019-05-30T04:44:17.650Z,7.60
2019-05-30T04:46:47.488Z,7.70
2019-05-30T04:49:19.108Z,7.80
2019-05-30T04:51:47.904Z,7.80
2019-05-30T04:54:19.091Z,8.00
2019-05-30T04:56:48.627Z,7.90
2019-05-30T04:59:19.935Z,8.00
2019-05-30T05:01:48.994Z,8.00
2019-05-30T05:04:19.536Z,8.00
2019-05-30T05:06:49.087Z,8.10
2019-05-30T05:09:20.130Z,8.20
2019-05-30T05:11:49.732Z,8.20
2019-05-30T05:14:20.559Z,8.30
2019-05-30T05:16:50.299Z,8.40
2019-05-30T05:19:21.812Z,8.50
2019-05-30T05:21:50.815Z,8.50
2019-05-30T05:24:21.468Z,8.60
2019-05-30T05:26:50.915Z,8.70
2019-05-30T05:29:20.306Z,8.70
2019-05-30T05:31:49.756Z,8.90
2019-05-30T05:34:19.274Z,9.00
2019-05-30T05:36:48.668Z,9.00
2019-05-30T05:39:18.123Z,9.20
2019-05-30T05:41:47.506Z,9.20
2019-05-30T05:44:18.223Z,9.30
2019-05-30T05:46:47.839Z,9.50
2019-05-30T05:49:18.391Z,9.60
2019-05-30T05:51:47.999Z,9.70
2019-05-30T05:54:18.760Z,9.80
2019-05-30T05:56:48.317Z,9.70
2019-05-30T05:59:18.780Z,10.00
2019-05-30T06:01:48.474Z,10.10
2019-05-30T06:04:19.085Z,10.20
2019-05-30T06:06:48.604Z,10.20
2019-05-30T06:09:18.325Z,10.40
2019-05-30T06:11:49.118Z,10.50
2019-05-30T06:14:19.853Z,10.40
2019-05-30T06:16:49.594Z,10.50
2019-05-30T06:19:19.254Z,10.60
2019-05-30T06:21:54.056Z,10.80
2019-05-30T06:24:19.907Z,11.20
2019-05-30T06:26:49.295Z,11.10
2019-05-30T06:29:20.011Z,11.10
2019-05-30T06:31:49.517Z,10.90
2019-05-30T06:34:30.174Z,10.70
2019-05-30T06:36:50.068Z,10.80
2019-05-30T06:39:19.552Z,10.80
2019-05-30T06:41:48.893Z,11.00
2019-05-30T06:44:18.384Z,11.10
2019-05-30T06:47:16.254Z,11.00
2019-05-30T06:49:45.761Z,11.00
2019-05-30T06:52:15.197Z,11.00
2019-05-30T06:54:44.576Z,11.10
2019-05-30T06:57:33.069Z,11.20
2019-05-30T07:00:02.550Z,11.10
2019-05-30T07:02:32.550Z,11.30
2019-05-30T07:05:02.691Z,11.30
2019-05-30T07:07:33.450Z,11.40
2019-05-30T07:10:03.095Z,11.50
2019-05-30T07:12:33.234Z,11.50
2019-05-30T07:15:02.910Z,11.50
2019-05-30T07:17:33.570Z,11.50
2019-05-30T07:20:03.368Z,11.60
2019-05-30T07:22:33.818Z,11.60
2019-05-30T07:25:03.702Z,11.80
2019-05-30T07:27:34.142Z,12.00
2019-05-30T07:30:03.872Z,11.90
2019-05-30T07:32:34.140Z,11.90
2019-05-30T07:35:07.106Z,12.00
2019-05-30T07:37:35.140Z,12.30
2019-05-30T07:40:26.586Z,12.30
2019-05-30T07:42:56.152Z,12.30
2019-05-30T07:45:26.732Z,12.60
2019-05-30T07:47:56.288Z,12.50
2019-05-30T07:50:26.279Z,12.50
2019-05-30T07:52:55.972Z,12.50
2019-05-30T07:55:25.400Z,12.50
2019-05-30T07:57:55.033Z,12.70
2019-05-30T08:00:24.433Z,12.80
2019-05-30T08:02:53.798Z,12.60
2019-05-30T08:05:24.834Z,12.70
2019-05-30T08:07:54.581Z,13.30
2019-05-30T08:10:24.734Z,13.00
2019-05-30T08:12:54.275Z,13.00
2019-05-30T08:15:24.014Z,12.90
2019-05-30T08:17:54.088Z,13.20
2019-05-30T08:20:23.513Z,13.10
2019-05-30T08:22:52.947Z,13.10
2019-05-30T08:25:22.376Z,13.30
2019-05-30T08:27:51.871Z,13.30
2019-05-30T08:30:21.897Z,13.40
2019-05-30T08:32:51.403Z,13.70
2019-05-30T08:35:20.827Z,13.70
2019-05-30T08:37:50.247Z,14.00
2019-05-30T08:40:19.867Z,13.90
2019-05-30T08:42:50.277Z,14.20
2019-05-30T08:45:19.900Z,13.90
2019-05-30T08:47:49.360Z,13.90
2019-05-30T08:50:19.308Z,13.90
2019-05-30T08:52:48.775Z,14.00
2019-05-30T08:55:19.298Z,13.90
2019-05-30T08:57:48.659Z,14.20
2019-05-30T09:00:18.518Z,14.40
2019-05-30T09:02:47.848Z,14.10
2019-05-30T09:05:17.489Z,14.50
2019-05-30T09:07:46.984Z,14.40
2019-05-30T09:10:17.151Z,14.30
2019-05-30T09:12:49.479Z,14.30
2019-05-30T09:15:21.774Z,14.50
2019-05-30T09:17:49.563Z,14.50
2019-05-30T09:20:19.195Z,14.80
2019-05-30T09:22:48.682Z,14.90
2019-05-30T09:25:19.268Z,15.10
2019-05-30T09:27:48.755Z,15.20
2019-05-30T09:30:19.071Z,15.00
2019-05-30T09:32:48.929Z,14.90
2019-05-30T09:35:19.039Z,15.10
2019-05-30T09:37:49.498Z,15.20
2019-05-30T09:40:19.390Z,15.10
2019-05-30T09:42:50.235Z,15.50
2019-05-30T09:45:21.848Z,15.60
2019-05-30T09:47:51.465Z,15.60
2019-05-30T09:50:22.389Z,15.90
2019-05-30T09:52:51.923Z,15.80
2019-05-30T09:55:21.940Z,15.50
2019-05-30T09:57:51.781Z,15.40
2019-05-30T10:00:23.751Z,15.70
2019-05-30T10:02:53.071Z,16.00
2019-05-30T10:05:24.683Z,15.80
2019-05-30T10:07:54.446Z,15.90
2019-05-30T10:10:24.120Z,16.10
2019-05-30T10:12:53.485Z,16.40
2019-05-30T10:15:23.194Z,16.60
2019-05-30T10:17:54.352Z,16.70
2019-05-30T10:20:23.758Z,16.10
2019-05-30T10:22:53.795Z,16.00
2019-05-30T10:25:23.652Z,16.20
2019-05-30T10:27:54.774Z,16.20
2019-05-30T10:30:25.180Z,16.10
2019-05-30T10:33:14.569Z,16.20
2019-05-30T10:35:45.605Z,16.30
2019-05-30T10:38:15.309Z,16.20
2019-05-30T10:40:45.632Z,16.40
2019-05-30T10:43:15.755Z,16.30
2019-05-30T10:45:47.492Z,16.30
2019-05-30T10:48:16.344Z,16.70
2019-05-30T10:50:46.900Z,16.50
2019-05-30T10:53:16.713Z,16.90
2019-05-30T10:55:46.953Z,16.70
2019-05-30T10:58:17.179Z,16.60
2019-05-30T11:00:53.766Z,16.80
2019-05-30T11:03:25.507Z,16.90
2019-05-30T11:06:23.094Z,17.10
2019-05-30T11:08:55.506Z,16.70
2019-05-30T11:11:24.828Z,16.60
2019-05-30T11:13:55.395Z,17.10
2019-05-30T11:16:24.852Z,17.30
2019-05-30T11:18:54.900Z,17.10
2019-05-30T11:21:25.341Z,17.20
2019-05-30T11:23:54.836Z,17.20
2019-05-30T11:26:24.270Z,17.30
2019-05-30T11:28:54.703Z,17.60
2019-05-30T11:31:24.195Z,17.60
2019-05-30T11:33:53.506Z,17.70
2019-05-30T11:36:22.964Z,18.10
2019-05-30T11:38:53.589Z,18.30
2019-05-30T11:41:23.303Z,18.80
2019-05-30T11:43:53.515Z,18.60
2019-05-30T11:46:23.203Z,18.40
2019-05-30T11:48:53.690Z,18.30
2019-05-30T11:51:23.322Z,18.50
2019-05-30T11:53:53.730Z,18.20
2019-05-30T11:56:23.263Z,18.40
2019-05-30T11:58:52.579Z,18.50
2019-05-30T12:01:22.057Z,19.00
2019-05-30T12:03:52.530Z,19.00
2019-05-30T12:06:21.996Z,19.30
2019-05-30T12:08:52.725Z,19.20
2019-05-30T12:11:22.147Z,19.30
2019-05-30T12:13:53.045Z,19.60
2019-05-30T12:16:22.797Z,19.60
2019-05-30T12:18:53.931Z,20.20
2019-05-30T12:21:23.527Z,20.00
2019-05-30T12:23:54.428Z,20.20
2019-05-30T12:26:23.939Z,20.40
2019-05-30T12:28:54.084Z,20.70
2019-05-30T12:31:23.823Z,21.40
2019-05-30T12:33:54.246Z,21.80
2019-05-30T12:36:23.763Z,22.20
2019-05-30T12:38:54.231Z,21.80
2019-05-30T12:41:23.829Z,22.10
2019-05-30T12:43:53.329Z,22.40
2019-05-30T12:46:22.772Z,22.50
2019-05-30T12:48:53.222Z,23.00
2019-05-30T12:51:22.740Z,22.30
2019-05-30T12:53:52.209Z,22.50
2019-05-30T12:56:21.579Z,22.40
2019-05-30T12:58:51.102Z,22.50
2019-05-30T13:01:20.524Z,22.50
2019-05-30T13:03:49.984Z,22.40
2019-05-30T13:06:19.416Z,23.50
2019-05-30T13:08:48.843Z,23.80
2019-05-30T13:11:18.235Z,24.20
2019-05-30T13:13:47.697Z,24.70
2019-05-30T13:16:18.162Z,25.10
2019-05-30T13:18:47.613Z,25.70
2019-05-30T13:21:17.068Z,25.80
2019-05-30T13:23:59.533Z,25.70
2019-05-30T13:26:29.008Z,25.80
2019-05-30T13:28:58.561Z,26.10
2019-05-30T13:31:27.998Z,27.00
2019-05-30T13:33:58.652Z,26.90
2019-05-30T13:36:28.500Z,26.30
2019-05-30T13:38:59.038Z,26.60
2019-05-30T13:41:28.620Z,26.70
2019-05-30T13:43:58.080Z,26.70
2019-05-30T13:46:27.528Z,26.00
2019-05-30T13:48:56.978Z,26.50
2019-05-30T13:51:26.443Z,27.50
2019-05-30T13:53:55.776Z,27.30
2019-05-30T13:56:25.256Z,28.30
2019-05-30T13:58:54.579Z,26.80
2019-05-30T14:01:23.937Z,27.00
2019-05-30T14:03:54.499Z,27.20
2019-05-30T14:06:23.983Z,27.80
2019-05-30T14:08:53.430Z,27.30
2019-05-30T14:11:22.855Z,27.20
2019-05-30T14:13:52.216Z,27.00
2019-05-30T14:16:21.609Z,26.70
2019-05-30T14:18:50.920Z,26.30
2019-05-30T14:21:20.311Z,26.40
2019-05-30T14:23:49.697Z,25.80
2019-05-30T14:26:19.302Z,25.90
2019-05-30T14:28:48.817Z,25.50
2019-05-30T14:31:18.400Z,25.70
2019-05-30T14:33:47.824Z,26.20
2019-05-30T14:36:17.331Z,27.10
2019-05-30T14:38:57.661Z,27.80
2019-05-30T14:41:17.749Z,27.90
2019-05-30T14:43:47.161Z,27.60
2019-05-30T14:46:16.776Z,27.50
2019-05-30T14:48:46.272Z,27.70
2019-05-30T14:51:17.020Z,27.40
2019-05-30T14:53:46.603Z,27.90
2019-05-30T14:56:17.359Z,28.10
2019-05-30T14:58:47.133Z,27.30
2019-05-30T15:01:17.525Z,27.80
2019-05-30T15:03:47.243Z,28.00
2019-05-30T15:06:17.899Z,28.40
2019-05-30T15:08:47.551Z,27.70
2019-05-30T15:11:16.919Z,27.90
2019-05-30T15:13:46.336Z,28.30
2019-05-30T15:16:16.952Z,28.00
2019-05-30T15:18:46.857Z,27.40
2019-05-30T15:21:16.597Z,27.60
2019-05-30T15:23:46.257Z,28.00
2019-05-30T15:26:16.291Z,27.80
2019-05-30T15:28:45.899Z,28.20
2019-05-30T15:31:16.557Z,29.00
2019-05-30T15:33:46.136Z,29.10
2019-05-30T15:36:16.823Z,29.30
2019-05-30T15:38:46.722Z,28.80
2019-05-30T15:41:17.125Z,29.60
2019-05-30T15:43:46.915Z,29.40
2019-05-30T15:46:16.360Z,29.60
2019-05-30T15:48:45.700Z,28.90
2019-05-30T15:51:15.129Z,28.30
2019-05-30T15:53:44.464Z,29.10
2019-05-30T15:56:13.744Z,29.40
2019-05-30T15:58:43.085Z,28.70
2019-05-30T16:01:12.535Z,28.50
2019-05-30T16:03:41.979Z,28.30
2019-05-30T16:06:12.517Z,28.90
2019-05-30T16:08:45.396Z,28.50
2019-05-30T16:11:13.104Z,28.40
2019-05-30T16:13:42.596Z,28.10
2019-05-30T16:16:12.021Z,28.80
2019-05-30T16:18:41.453Z,28.80
2019-05-30T16:21:13.043Z,28.00
2019-05-30T16:23:42.048Z,27.20
2019-05-30T16:26:11.381Z,28.20
2019-05-30T16:28:40.923Z,28.00
2019-05-30T16:31:10.324Z,27.10
2019-05-30T16:33:39.699Z,26.80
2019-05-30T16:36:09.113Z,27.00
2019-05-30T16:38:38.532Z,26.60
2019-05-30T16:41:07.979Z,28.30
2019-05-30T16:43:37.556Z,29.30
2019-05-30T16:46:07.016Z,29.40
2019-05-30T16:48:36.436Z,29.80
2019-05-30T16:51:05.897Z,29.10
2019-05-30T16:53:35.433Z,28.90
2019-05-30T16:56:04.863Z,28.30
2019-05-30T16:58:34.603Z,27.50
2019-05-30T17:01:04.131Z,26.30
2019-05-30T17:03:33.626Z,25.40
2019-05-30T17:06:03.166Z,24.20
2019-05-30T17:08:35.755Z,22.70
2019-05-30T17:11:03.709Z,22.50
2019-05-30T17:13:33.205Z,22.80
2019-05-30T17:16:02.680Z,22.70
2019-05-30T17:18:32.237Z,22.40
2019-05-30T17:21:01.672Z,22.20
2019-05-30T17:23:31.084Z,21.30
2019-05-30T17:26:00.415Z,21.10
2019-05-30T17:28:29.704Z,21.00
2019-05-30T17:30:59.243Z,20.60
2019-05-30T17:33:47.638Z,20.50
2019-05-30T17:36:18.073Z,20.70
2019-05-30T17:38:47.504Z,21.20
2019-05-30T17:41:16.867Z,21.50
2019-05-30T17:43:46.299Z,21.40
2019-05-30T17:46:15.796Z,21.70
2019-05-30T17:48:45.347Z,21.80
2019-05-30T17:51:14.842Z,21.90
2019-05-30T17:53:44.300Z,22.00
2019-05-30T17:56:13.796Z,21.70
2019-05-30T17:58:43.165Z,21.70
2019-05-30T18:01:12.590Z,21.40
2019-05-30T18:03:41.982Z,21.10
2019-05-30T18:06:11.496Z,21.00
2019-05-30T18:08:40.958Z,21.00
2019-05-30T18:11:10.358Z,20.80
2019-05-30T18:13:39.819Z,21.00
2019-05-30T18:16:09.205Z,20.70
2019-05-30T18:18:39.021Z,20.50
2019-05-30T18:21:08.649Z,20.50
2019-05-30T18:23:38.037Z,20.20
2019-05-30T18:26:07.658Z,20.20
2019-05-30T18:28:37.136Z,20.00
2019-05-30T18:31:06.606Z,19.80
2019-05-30T18:33:36.000Z,19.30
2019-05-30T18:36:06.356Z,18.90
2019-05-30T18:38:35.793Z,18.60
2019-05-30T18:41:11.521Z,18.60
2019-05-30T18:43:36.473Z,18.30
2019-05-30T18:46:05.897Z,18.00
2019-05-30T18:48:35.257Z,17.80
2019-05-30T18:51:04.721Z,17.50
2019-05-30T18:53:34.233Z,17.40
2019-05-30T18:56:03.710Z,17.20
2019-05-30T18:58:33.317Z,17.00
2019-05-30T19:01:05.350Z,16.90
2019-05-30T19:03:34.763Z,16.80
2019-05-30T19:06:04.208Z,16.70
2019-05-30T19:08:34.150Z,16.60
2019-05-30T19:11:04.048Z,16.50
2019-05-30T19:13:33.497Z,16.40
2019-05-30T19:16:02.932Z,16.30
2019-05-30T19:18:33.437Z,16.20
2019-05-30T19:21:03.212Z,16.10
2019-05-30T19:23:32.571Z,16.10
2019-05-30T19:26:01.996Z,16.10
2019-05-30T19:28:32.335Z,16.00
2019-05-30T19:31:01.967Z,15.90
2019-05-30T19:33:31.381Z,15.90
2019-05-30T19:36:00.794Z,15.80
2019-05-30T19:38:31.264Z,15.70
2019-05-30T19:41:00.783Z,15.70
2019-05-30T19:43:30.161Z,15.60
2019-05-30T19:45:59.496Z,15.50
2019-05-30T19:48:30.185Z,15.50
2019-05-30T19:50:59.877Z,15.50
2019-05-30T19:53:29.253Z,15.40
2019-05-30T19:55:58.683Z,15.30
2019-05-30T19:58:29.571Z,15.20
2019-05-30T20:00:59.306Z,15.10
2019-05-30T20:06:00.118Z,15.10
2019-05-30T20:06:13.543Z,15.10
2019-05-30T20:08:44.698Z,15.00
2019-05-30T20:11:00.731Z,14.90
2019-05-30T20:13:31.054Z,14.90
2019-05-30T20:16:00.673Z,14.90
2019-05-30T20:18:31.435Z,14.80
2019-05-30T20:21:01.130Z,14.80
2019-05-30T20:23:30.553Z,14.90
2019-05-30T20:25:59.919Z,14.70
2019-05-30T20:28:29.280Z,14.70
2019-05-30T20:30:58.677Z,14.60
2019-05-30T20:33:28.121Z,14.60
2019-05-30T20:35:57.443Z,14.60
2019-05-30T20:38:26.981Z,14.50
2019-05-30T20:40:56.407Z,14.50
2019-05-30T20:43:25.760Z,14.50
2019-05-30T20:45:55.257Z,14.50
2019-05-30T20:48:24.711Z,14.40
2019-05-30T20:50:54.167Z,14.40
2019-05-30T20:53:23.659Z,14.30
2019-05-30T20:55:53.095Z,14.30
2019-05-30T20:58:22.551Z,14.30
2019-05-30T21:00:51.874Z,14.30
2019-05-30T21:03:21.245Z,14.30
2019-05-30T21:05:50.879Z,14.20
2019-05-30T21:08:20.359Z,14.30
2019-05-30T21:10:50.508Z,14.20
2019-05-30T21:13:19.845Z,14.20
2019-05-30T21:15:49.765Z,14.20
2019-05-30T21:18:19.937Z,14.10
2019-05-30T21:20:49.497Z,14.00
2019-05-30T21:23:18.949Z,14.00
2019-05-30T21:25:48.274Z,14.00
2019-05-30T21:28:17.644Z,14.00
2019-05-30T21:30:47.509Z,13.90
2019-05-30T21:33:17.272Z,13.80
2019-05-30T21:35:47.949Z,13.80
2019-05-30T21:38:17.821Z,13.80
2019-05-30T21:40:48.392Z,13.70
2019-05-30T21:43:18.069Z,13.60
2019-05-30T21:45:48.861Z,13.50
2019-05-30T21:48:18.425Z,13.40
2019-05-30T21:50:49.102Z,13.30
2019-05-30T21:53:18.911Z,13.30
2019-05-30T21:55:50.119Z,13.20
2019-05-30T21:58:19.730Z,13.30
2019-05-30T22:01:38.341Z,13.30
2019-05-30T22:04:08.086Z,13.30
2019-05-30T22:06:37.747Z,13.30
2019-05-30T22:09:11.122Z,13.20
2019-05-30T22:11:41.619Z,13.30
2019-05-30T22:14:11.161Z,13.30
2019-05-30T22:16:41.763Z,13.30
2019-05-30T22:19:11.435Z,13.30
2019-05-30T22:21:41.988Z,13.30
2019-05-30T22:24:11.526Z,13.40
2019-05-30T22:26:42.337Z,13.30
2019-05-30T22:29:11.901Z,13.30
2019-05-30T22:31:42.467Z,13.30
2019-05-30T22:34:12.052Z,13.30
2019-05-30T22:36:42.624Z,13.30
2019-05-30T22:39:12.206Z,13.30
2019-05-30T22:41:41.530Z,13.30
2019-05-30T22:44:11.430Z,13.30
2019-05-30T22:46:40.940Z,13.30
2019-05-30T22:49:10.369Z,13.30
2019-05-30T22:51:39.850Z,13.20
2019-05-30T22:54:09.263Z,13.20
2019-05-30T22:56:38.553Z,13.20
2019-05-30T22:59:07.969Z,13.10
2019-05-30T23:01:37.485Z,13.10
2019-05-30T23:04:06.968Z,13.00
2019-05-30T23:06:36.382Z,12.90
2019-05-30T23:09:07.792Z,12.90
2019-05-30T23:11:37.237Z,12.90
2019-05-30T23:14:06.797Z,12.90
2019-05-30T23:16:36.304Z,12.90
2019-05-30T23:19:05.692Z,12.80
2019-05-30T23:21:35.079Z,12.80
2019-05-30T23:24:04.452Z,12.60
2019-05-30T23:26:33.875Z,12.60
2019-05-30T23:29:03.192Z,12.60
2019-05-30T23:31:32.586Z,12.60
2019-05-30T23:34:01.877Z,12.60
2019-05-30T23:36:31.415Z,12.50
2019-05-30T23:39:00.877Z,12.50
2019-05-30T23:41:30.292Z,12.50
2019-05-30T23:44:09.652Z,12.40
2019-05-30T23:46:31.904Z,12.20
2019-05-30T23:49:01.505Z,12.20
2019-05-30T23:51:30.863Z,12.20
2019-05-30T23:54:00.574Z,12.20
2019-05-30T23:56:30.090Z,12.10
2019-05-30T23:59:01.042Z,12.10
